createdAt,value
2022-11-21T00:01:52.667Z,22.92
2022-11-21T00:04:22.048Z,24.08
2022-11-21T00:06:52.940Z,25.63
2022-11-21T00:09:22.226Z,29.02
2022-11-21T00:11:53.289Z,31.40
2022-11-21T00:14:22.733Z,31.73
2022-11-21T00:16:57.150Z,28.33
2022-11-21T00:19:26.927Z,26.58
2022-11-21T00:21:55.941Z,34.28
2022-11-21T00:24:25.461Z,38.92
2022-11-21T00:26:54.785Z,31.20
2022-11-21T00:29:24.155Z,30.23
2022-11-21T00:31:55.132Z,30.58
2022-11-21T00:34:24.565Z,33.70
2022-11-21T00:36:53.627Z,33.17
2022-11-21T00:39:23.093Z,33.55
2022-11-21T00:41:52.161Z,28.70
2022-11-21T00:44:21.525Z,36.22
2022-11-21T00:46:50.656Z,35.60
2022-11-21T00:49:21.332Z,39.47
2022-11-21T00:51:50.362Z,40.05
2022-11-21T00:54:19.733Z,39.85
2022-11-21T00:56:48.879Z,36.55
2022-11-21T00:59:18.214Z,39.88
2022-11-21T01:01:47.508Z,29.58
2022-11-21T01:04:17.304Z,27.67
2022-11-21T01:06:47.903Z,32.67
2022-11-21T01:09:17.356Z,27.20
2022-11-21T01:11:46.511Z,34.70
2022-11-21T01:14:15.828Z,35.35
2022-11-21T01:16:44.850Z,26.35
2022-11-21T01:19:14.632Z,28.55
2022-11-21T01:21:43.648Z,31.85
2022-11-21T01:24:14.797Z,33.60
2022-11-21T01:26:43.867Z,30.75
2022-11-21T01:29:13.608Z,27.27
2022-11-21T01:31:42.822Z,24.75
2022-11-21T01:34:12.338Z,24.75
2022-11-21T01:36:41.978Z,22.40
2022-11-21T01:39:14.565Z,26.90
2022-11-21T01:41:45.945Z,27.83
2022-11-21T01:44:21.084Z,29.00
2022-11-21T01:46:51.383Z,24.17
2022-11-21T01:49:23.536Z,29.50
2022-11-21T01:51:56.749Z,29.08
2022-11-21T01:54:34.560Z,29.48
2022-11-21T01:57:08.329Z,34.55
2022-11-21T01:59:42.332Z,29.60
2022-11-21T02:02:13.810Z,31.45
2022-11-21T02:04:45.937Z,30.85
2022-11-21T02:07:17.229Z,34.45
2022-11-21T02:09:52.445Z,31.23
2022-11-21T02:12:28.168Z,32.05
2022-11-21T02:14:58.732Z,33.95
2022-11-21T02:17:30.276Z,35.17
2022-11-21T02:20:01.796Z,35.78
2022-11-21T02:22:41.678Z,42.58
2022-11-21T02:25:16.505Z,42.03
2022-11-21T02:27:46.484Z,40.58
2022-11-21T02:30:16.341Z,48.00
2022-11-21T02:32:47.880Z,40.13
2022-11-21T02:35:20.366Z,38.20
2022-11-21T02:37:53.741Z,41.55
2022-11-21T02:40:28.440Z,37.60
2022-11-21T02:43:03.551Z,35.60
2022-11-21T02:45:37.048Z,42.20
2022-11-21T02:48:06.790Z,47.05
2022-11-21T02:50:37.814Z,42.67
2022-11-21T02:53:08.857Z,43.53
2022-11-21T02:55:40.154Z,41.10
2022-11-21T02:58:09.563Z,44.45
2022-11-21T03:00:41.219Z,43.45
2022-11-21T03:03:10.667Z,42.00
2022-11-21T03:05:41.588Z,40.53
2022-11-21T03:08:11.460Z,39.13
2022-11-21T03:10:42.152Z,32.88
2022-11-21T03:13:11.175Z,38.60
2022-11-21T03:15:40.592Z,43.25
2022-11-21T03:18:09.576Z,41.55
2022-11-21T03:20:38.992Z,37.28
2022-11-21T03:23:08.134Z,37.15
2022-11-21T03:25:37.485Z,38.70
2022-11-21T03:28:07.985Z,39.78
2022-11-21T03:36:01.473Z,34.30
2022-11-21T03:38:30.786Z,32.67
2022-11-21T03:41:04.383Z,33.88
2022-11-21T03:43:35.485Z,35.22
2022-11-21T03:46:04.540Z,38.55
2022-11-21T03:48:33.957Z,32.42
2022-11-21T03:51:02.991Z,35.47
2022-11-21T03:53:32.230Z,32.45
2022-11-21T03:56:01.367Z,36.20
2022-11-21T03:58:30.714Z,40.05
2022-11-21T04:01:01.210Z,33.17
2022-11-21T04:03:30.757Z,40.45
2022-11-21T04:05:59.867Z,34.00
2022-11-21T04:08:29.356Z,34.72
2022-11-21T04:10:58.350Z,30.55
2022-11-21T04:13:27.618Z,28.27
2022-11-21T04:15:56.886Z,31.13
2022-11-21T04:18:27.897Z,35.00
2022-11-21T04:20:59.111Z,36.88
2022-11-21T04:23:29.282Z,30.88
2022-11-21T04:25:58.579Z,34.38
2022-11-21T04:28:28.437Z,32.08
2022-11-21T04:31:00.560Z,28.10
2022-11-21T04:33:31.471Z,30.98
2022-11-21T04:36:00.780Z,35.17
2022-11-21T04:38:30.051Z,38.58
2022-11-21T04:40:59.192Z,30.83
2022-11-21T04:43:28.505Z,32.15
2022-11-21T04:45:57.551Z,31.48
2022-11-21T04:48:26.968Z,35.10
2022-11-21T04:50:57.373Z,31.73
2022-11-21T04:53:26.802Z,35.25
2022-11-21T04:55:56.129Z,33.00
2022-11-21T04:58:25.516Z,33.47
2022-11-21T05:00:54.719Z,32.58
2022-11-21T05:03:24.268Z,29.27
2022-11-21T05:05:53.293Z,31.05
2022-11-21T05:08:24.257Z,33.65
2022-11-21T05:11:10.432Z,32.90
2022-11-21T05:13:39.824Z,34.38
2022-11-21T05:16:08.898Z,32.72
2022-11-21T05:18:38.205Z,27.70
2022-11-21T05:21:07.342Z,32.22
2022-11-21T05:23:38.044Z,35.70
2022-11-21T05:26:07.194Z,34.72
2022-11-21T05:28:36.563Z,33.92
2022-11-21T05:31:05.765Z,30.98
2022-11-21T05:33:35.127Z,35.88
2022-11-21T05:36:04.572Z,31.20
2022-11-21T05:38:33.964Z,32.85
2022-11-21T05:41:04.431Z,28.50
2022-11-21T05:43:50.109Z,31.73
2022-11-21T05:46:20.679Z,30.23
2022-11-21T05:48:51.449Z,30.15
2022-11-21T05:51:21.295Z,32.30
2022-11-21T05:53:50.839Z,42.85
2022-11-21T05:56:21.904Z,35.75
2022-11-21T05:58:51.501Z,32.03
2022-11-21T06:01:41.424Z,36.80
2022-11-21T06:04:10.583Z,37.55
2022-11-21T06:06:39.824Z,37.28
2022-11-21T06:09:09.213Z,41.22
2022-11-21T06:11:39.747Z,38.20
2022-11-21T06:14:09.102Z,40.60
2022-11-21T06:16:38.201Z,37.42
2022-11-21T06:19:07.656Z,32.33
2022-11-21T06:21:37.391Z,34.30
2022-11-21T06:24:08.003Z,37.60
2022-11-21T06:26:38.423Z,37.90
2022-11-21T06:29:08.431Z,35.15
2022-11-21T06:31:37.877Z,37.45
2022-11-21T06:34:07.165Z,34.05
2022-11-21T06:36:36.952Z,37.47
2022-11-21T06:39:06.623Z,32.05
2022-11-21T06:41:36.130Z,30.33
2022-11-21T06:44:07.163Z,39.28
2022-11-21T06:46:36.314Z,39.30
2022-11-21T06:49:05.881Z,36.08
2022-11-21T06:51:34.926Z,37.45
2022-11-21T06:54:04.569Z,32.60
2022-11-21T06:56:34.023Z,28.80
2022-11-21T06:59:03.505Z,34.85
2022-11-21T07:01:33.914Z,35.90
2022-11-21T07:04:03.416Z,33.10
2022-11-21T07:06:32.542Z,33.25
2022-11-21T07:11:51.066Z,44.75
2022-11-21T07:14:19.394Z,34.65
2022-11-21T07:16:49.885Z,34.88
2022-11-21T07:19:19.407Z,44.88
2022-11-21T07:21:48.690Z,31.58
2022-11-21T07:24:18.193Z,35.20
2022-11-21T07:26:47.175Z,41.00
2022-11-21T07:29:16.514Z,40.72
2022-11-21T07:31:45.605Z,38.05
2022-11-21T07:34:16.355Z,36.53
2022-11-21T07:36:45.693Z,38.10
2022-11-21T07:39:15.208Z,33.15
2022-11-21T07:41:44.424Z,34.28
2022-11-21T07:44:13.764Z,29.15
2022-11-21T07:46:42.818Z,31.33
2022-11-21T07:49:12.208Z,37.58
2022-11-21T07:51:42.566Z,42.00
2022-11-21T07:54:12.074Z,45.63
2022-11-21T07:56:41.056Z,55.15
2022-11-21T07:59:10.515Z,50.97
2022-11-21T08:01:44.997Z,43.15
2022-11-21T08:04:14.851Z,43.67
2022-11-21T08:06:45.510Z,44.10
2022-11-21T08:09:15.031Z,36.78
2022-11-21T08:11:44.088Z,41.60
2022-11-21T08:14:13.507Z,46.40
2022-11-21T08:16:42.603Z,40.25
2022-11-21T08:19:11.991Z,41.63
2022-11-21T08:21:41.041Z,36.55
2022-11-21T08:24:14.719Z,37.67
2022-11-21T08:26:43.944Z,41.60
2022-11-21T08:29:15.380Z,39.30
2022-11-21T08:31:45.322Z,44.33
2022-11-21T08:34:14.974Z,44.45
2022-11-21T08:36:43.965Z,45.00
2022-11-21T08:39:14.819Z,38.83
2022-11-21T08:42:01.320Z,38.78
2022-11-21T08:44:31.132Z,53.20
2022-11-21T08:47:00.417Z,43.22
2022-11-21T08:49:30.255Z,41.13
2022-11-21T08:51:59.266Z,43.25
2022-11-21T08:54:30.295Z,47.67
2022-11-21T08:56:59.663Z,49.58
2022-11-21T08:59:28.979Z,43.70
2022-11-21T09:01:58.011Z,46.00
2022-11-21T09:04:27.547Z,50.85
2022-11-21T09:06:56.770Z,55.97
2022-11-21T09:09:26.056Z,55.90
2022-11-21T09:11:56.631Z,56.65
2022-11-21T09:14:43.421Z,61.47
2022-11-21T09:17:32.459Z,64.95
2022-11-21T09:20:01.821Z,59.10
2022-11-21T09:22:30.997Z,57.50
2022-11-21T09:25:00.343Z,74.47
2022-11-21T09:27:31.450Z,67.13
2022-11-21T09:30:00.754Z,67.60
2022-11-21T09:32:29.894Z,67.15
2022-11-21T09:34:59.228Z,71.50
2022-11-21T09:37:28.248Z,73.40
2022-11-21T09:39:57.668Z,73.18
2022-11-21T09:42:49.181Z,79.97
2022-11-21T09:45:24.468Z,78.28
2022-11-21T09:47:54.479Z,73.75
2022-11-21T09:50:30.610Z,82.70
2022-11-21T09:53:04.815Z,76.28
2022-11-21T09:55:43.831Z,85.50
2022-11-21T09:58:26.605Z,81.65
2022-11-21T10:00:56.296Z,86.22
2022-11-21T10:03:30.341Z,87.55
2022-11-21T10:06:04.048Z,80.80
2022-11-21T10:08:42.844Z,84.18
2022-11-21T10:11:20.821Z,86.82
2022-11-21T10:14:07.027Z,84.82
2022-11-21T10:16:45.740Z,80.68
2022-11-21T10:19:48.794Z,76.65
2022-11-21T10:22:51.447Z,72.88
2022-11-21T10:25:27.452Z,77.28
2022-11-21T10:28:03.090Z,71.93
2022-11-21T10:30:34.701Z,78.25
2022-11-21T10:33:05.938Z,84.25
2022-11-21T10:35:42.222Z,86.57
2022-11-21T10:38:22.524Z,78.65
2022-11-21T10:40:56.187Z,73.28
2022-11-21T10:43:51.505Z,69.55
2022-11-21T10:46:22.108Z,72.20
2022-11-21T10:48:58.305Z,84.10
2022-11-21T10:51:43.735Z,92.45
2022-11-21T10:54:32.412Z,81.13
2022-11-21T10:57:07.393Z,91.80
2022-11-21T10:59:36.692Z,94.85
2022-11-21T11:02:25.620Z,92.47
2022-11-21T11:05:20.590Z,89.10
2022-11-21T11:08:03.012Z,87.95
2022-11-21T11:10:33.933Z,81.05
2022-11-21T11:16:18.537Z,72.50
2022-11-21T11:18:57.334Z,70.85
2022-11-21T11:21:28.761Z,74.60
2022-11-21T11:24:21.246Z,71.65
2022-11-21T11:26:58.310Z,71.20
2022-11-21T11:29:30.444Z,69.18
2022-11-21T11:32:04.386Z,67.35
2022-11-21T11:34:42.234Z,67.38
2022-11-21T11:37:18.375Z,67.55
2022-11-21T11:39:55.417Z,64.75
2022-11-21T11:43:04.363Z,66.43
2022-11-21T11:46:06.430Z,70.25
2022-11-21T11:48:56.500Z,69.43
2022-11-21T11:51:36.187Z,69.13
2022-11-21T11:54:13.681Z,69.50
2022-11-21T11:56:47.211Z,69.05
2022-11-21T11:59:21.584Z,68.00
2022-11-21T12:01:57.082Z,69.30
2022-11-21T12:04:31.253Z,68.45
2022-11-21T12:10:02.541Z,71.67
2022-11-21T12:12:37.784Z,77.57
2022-11-21T12:18:13.742Z,76.82
2022-11-21T12:20:54.017Z,91.40
2022-11-21T12:23:26.247Z,92.55
2022-11-21T12:26:05.009Z,89.20
2022-11-21T12:28:47.290Z,90.05
2022-11-21T12:31:23.117Z,95.05
2022-11-21T12:33:58.004Z,84.35
2022-11-21T12:36:35.162Z,107.10
2022-11-21T12:39:36.748Z,101.50
2022-11-21T12:42:30.888Z,98.03
2022-11-21T12:45:19.508Z,96.38
2022-11-21T12:48:30.513Z,91.47
2022-11-21T12:51:34.725Z,106.03
2022-11-21T12:54:33.360Z,100.07
2022-11-21T12:57:11.505Z,94.53
2022-11-21T13:00:04.057Z,103.05
2022-11-21T13:02:47.314Z,103.57
2022-11-21T13:05:26.010Z,113.90
2022-11-21T13:08:00.487Z,110.50
2022-11-21T13:10:30.665Z,103.57
2022-11-21T13:13:06.721Z,118.43
2022-11-21T13:15:44.651Z,99.60
2022-11-21T13:18:21.624Z,108.20
2022-11-21T13:20:52.727Z,103.35
2022-11-21T13:23:38.380Z,100.50
2022-11-21T13:26:41.032Z,99.97
2022-11-21T13:29:12.547Z,113.35
2022-11-21T13:31:42.221Z,107.25
2022-11-21T13:34:38.876Z,105.82
2022-11-21T13:37:08.281Z,112.13
2022-11-21T13:39:39.124Z,109.40
2022-11-21T13:42:33.099Z,107.30
2022-11-21T13:45:38.963Z,114.55
2022-11-21T13:48:42.639Z,126.23
2022-11-21T13:51:23.797Z,109.38
2022-11-21T13:54:28.804Z,118.78
2022-11-21T13:57:22.367Z,137.88
2022-11-21T14:00:31.495Z,144.02
2022-11-21T14:03:36.783Z,144.27
2022-11-21T14:06:32.599Z,121.20
2022-11-21T14:09:39.350Z,112.22
2022-11-21T14:12:22.472Z,119.72
2022-11-21T14:14:56.107Z,119.10
2022-11-21T14:17:36.465Z,114.47
2022-11-21T14:20:16.277Z,114.88
2022-11-21T14:22:54.116Z,126.88
2022-11-21T14:25:27.657Z,122.57
2022-11-21T14:27:58.119Z,130.73
2022-11-21T14:30:35.790Z,119.78
2022-11-21T14:33:26.163Z,122.28
2022-11-21T14:35:58.861Z,132.45
2022-11-21T14:38:30.554Z,115.70
2022-11-21T14:41:25.981Z,153.23
2022-11-21T14:44:17.197Z,135.23
2022-11-21T14:46:47.734Z,131.80
2022-11-21T14:49:26.811Z,121.57
2022-11-21T14:52:02.871Z,138.93
2022-11-21T14:54:34.685Z,154.10
2022-11-21T14:57:07.758Z,143.45
2022-11-21T14:59:41.618Z,129.05
2022-11-21T15:02:17.064Z,130.57
2022-11-21T15:04:49.940Z,118.43
2022-11-21T15:07:30.156Z,124.65
2022-11-21T15:10:27.270Z,111.70
2022-11-21T15:12:59.940Z,112.30
2022-11-21T15:15:34.264Z,119.50
2022-11-21T15:20:59.567Z,116.75
2022-11-21T15:23:30.670Z,119.40
2022-11-21T15:26:01.704Z,122.45
2022-11-21T15:28:31.723Z,120.60
2022-11-21T15:31:18.072Z,114.47
2022-11-21T15:37:05.731Z,132.45
2022-11-21T15:39:35.998Z,115.07
2022-11-21T15:42:37.329Z,118.20
2022-11-21T15:45:25.535Z,116.35
2022-11-21T15:47:56.789Z,123.47
2022-11-21T15:50:26.754Z,112.70
2022-11-21T15:52:57.508Z,114.07
2022-11-21T15:55:29.478Z,141.45
2022-11-21T15:57:59.026Z,115.32
2022-11-21T16:00:28.159Z,106.15
2022-11-21T16:02:57.669Z,107.65
2022-11-21T16:05:26.873Z,123.07
2022-11-21T16:07:57.553Z,115.47
2022-11-21T16:10:28.132Z,104.95
2022-11-21T16:12:57.762Z,101.85
2022-11-21T16:15:26.897Z,103.82
2022-11-21T16:17:56.217Z,104.15
2022-11-21T16:20:25.220Z,106.13
2022-11-21T16:22:54.692Z,112.63
2022-11-21T16:25:25.247Z,124.13
2022-11-21T16:27:54.607Z,133.75
2022-11-21T16:30:23.679Z,118.88
2022-11-21T16:32:55.559Z,108.07
2022-11-21T16:35:25.180Z,101.18
2022-11-21T16:37:54.529Z,161.63
2022-11-21T16:40:25.216Z,290.95
2022-11-21T16:43:07.559Z,232.30
2022-11-21T16:45:36.749Z,107.95
2022-11-21T16:48:06.916Z,142.10
2022-11-21T16:50:36.231Z,131.80
2022-11-21T16:53:05.663Z,118.03
2022-11-21T16:55:36.225Z,117.18
2022-11-21T16:58:06.059Z,103.68
2022-11-21T17:00:35.087Z,105.68
2022-11-21T17:03:04.887Z,107.43
2022-11-21T17:05:33.963Z,123.32
2022-11-21T17:08:03.267Z,114.20
2022-11-21T17:10:34.077Z,117.20
2022-11-21T17:13:05.116Z,117.47
2022-11-21T17:15:34.209Z,199.98
2022-11-21T17:18:03.810Z,140.32
2022-11-21T17:20:32.886Z,129.63
2022-11-21T17:23:02.831Z,128.40
2022-11-21T17:25:33.772Z,131.02
2022-11-21T17:28:06.068Z,112.35
2022-11-21T17:30:35.466Z,157.98
2022-11-21T17:33:04.865Z,120.13
2022-11-21T17:35:33.954Z,116.43
2022-11-21T17:38:03.416Z,119.47
2022-11-21T17:40:32.472Z,112.90
2022-11-21T17:43:01.873Z,142.70
2022-11-21T17:45:32.245Z,117.95
2022-11-21T17:48:01.692Z,114.07
2022-11-21T17:50:30.792Z,127.45
2022-11-21T17:53:00.316Z,154.68
2022-11-21T17:55:29.477Z,149.52
2022-11-21T17:57:59.422Z,195.38
2022-11-21T18:00:28.437Z,158.57
2022-11-21T18:03:00.032Z,124.47
2022-11-21T18:05:30.578Z,121.07
2022-11-21T18:07:59.984Z,125.68
2022-11-21T18:10:42.702Z,108.80
2022-11-21T18:13:13.292Z,123.20
2022-11-21T18:15:42.443Z,126.47
2022-11-21T18:18:13.301Z,107.95
2022-11-21T18:20:42.345Z,116.45
2022-11-21T18:23:11.868Z,117.10
2022-11-21T18:25:41.292Z,111.82
2022-11-21T18:28:10.757Z,128.60
2022-11-21T18:30:39.952Z,134.75
2022-11-21T18:33:10.167Z,132.00
2022-11-21T18:35:44.246Z,120.30
2022-11-21T18:38:40.311Z,123.93
2022-11-21T18:41:06.853Z,119.30
2022-11-21T18:43:36.652Z,122.95
2022-11-21T18:46:06.492Z,116.00
2022-11-21T18:49:00.702Z,117.40
2022-11-21T18:51:28.885Z,121.35
2022-11-21T18:53:59.498Z,114.78
2022-11-21T18:56:29.292Z,117.65
2022-11-21T18:58:59.268Z,122.40
2022-11-21T19:01:30.255Z,119.63
2022-11-21T19:03:59.858Z,117.40
2022-11-21T19:06:30.864Z,120.93
2022-11-21T19:09:00.591Z,119.13
2022-11-21T19:11:31.121Z,121.68
2022-11-21T19:14:01.543Z,112.70
2022-11-21T19:16:34.634Z,125.18
2022-11-21T19:21:58.413Z,118.07
2022-11-21T19:24:27.759Z,120.97
2022-11-21T19:26:57.300Z,117.75
2022-11-21T19:29:26.946Z,121.63
2022-11-21T19:31:56.740Z,124.55
2022-11-21T19:34:26.359Z,126.95
2022-11-21T19:36:55.586Z,131.77
2022-11-21T19:39:26.721Z,125.85
2022-11-21T19:41:56.309Z,113.55
2022-11-21T19:44:25.717Z,114.57
2022-11-21T19:46:54.782Z,117.10
2022-11-21T19:49:24.297Z,125.75
2022-11-21T19:51:53.299Z,103.80
2022-11-21T19:54:22.888Z,124.75
2022-11-21T19:56:53.429Z,118.32
2022-11-21T19:59:23.144Z,111.53
2022-11-21T20:01:53.109Z,107.55
2022-11-21T20:04:22.720Z,108.47
2022-11-21T20:06:51.830Z,109.47
2022-11-21T20:09:22.922Z,117.75
2022-11-21T20:11:54.568Z,121.10
2022-11-21T20:14:24.227Z,118.57
2022-11-21T20:16:54.085Z,121.35
2022-11-21T20:19:26.907Z,124.68
2022-11-21T20:21:56.832Z,103.03
2022-11-21T20:24:26.333Z,118.53
2022-11-21T20:26:56.798Z,107.20
2022-11-21T20:29:26.199Z,103.72
2022-11-21T20:31:59.133Z,109.88
2022-11-21T20:34:28.730Z,98.75
2022-11-21T20:36:59.733Z,102.65
2022-11-21T20:39:32.199Z,114.55
2022-11-21T20:42:02.865Z,105.93
2022-11-21T20:45:25.778Z,107.10
2022-11-21T20:47:21.333Z,108.95
2022-11-21T20:49:50.737Z,105.07
2022-11-21T20:55:10.033Z,117.88
2022-11-21T20:57:40.786Z,114.03
2022-11-21T21:00:12.692Z,116.95
2022-11-21T21:02:41.843Z,113.88
2022-11-21T21:05:11.531Z,117.25
2022-11-21T21:07:40.670Z,120.07
2022-11-21T21:10:11.539Z,130.18
2022-11-21T21:12:48.394Z,131.68
2022-11-21T21:15:18.521Z,131.93
2022-11-21T21:17:47.601Z,125.88
2022-11-21T21:20:19.725Z,123.43
2022-11-21T21:22:48.994Z,119.32
2022-11-21T21:25:18.494Z,118.18
2022-11-21T21:27:51.408Z,121.53
2022-11-21T21:30:21.498Z,125.72
2022-11-21T21:32:50.703Z,141.48
2022-11-21T21:35:20.368Z,137.93
2022-11-21T21:37:49.520Z,135.35
2022-11-21T21:40:18.977Z,110.50
2022-11-21T21:42:49.636Z,128.68
2022-11-21T21:45:19.032Z,162.25
2022-11-21T21:47:48.009Z,156.68
2022-11-21T21:50:17.542Z,133.35
2022-11-21T21:52:46.657Z,155.52
2022-11-21T21:55:16.237Z,160.07
2022-11-21T21:57:51.071Z,124.53
2022-11-21T22:00:23.161Z,139.88
2022-11-21T22:02:52.247Z,184.35
2022-11-21T22:05:21.687Z,160.88
2022-11-21T22:07:50.864Z,193.68
2022-11-21T22:10:20.447Z,161.15
2022-11-21T22:12:49.830Z,125.05
2022-11-21T22:15:19.301Z,115.00
2022-11-21T22:17:49.769Z,109.40
2022-11-21T22:20:19.174Z,107.90
2022-11-21T22:22:48.236Z,125.90
2022-11-21T22:25:17.616Z,119.45
2022-11-21T22:27:46.778Z,116.55
2022-11-21T22:30:16.564Z,115.85
2022-11-21T22:32:45.856Z,114.03
2022-11-21T22:35:16.953Z,114.47
2022-11-21T22:37:45.947Z,106.95
2022-11-21T22:40:15.800Z,118.53
2022-11-21T22:42:44.974Z,109.22
2022-11-21T22:45:14.409Z,119.60
2022-11-21T22:47:47.795Z,118.60
2022-11-21T22:50:19.112Z,135.80
2022-11-21T22:52:48.345Z,120.70
2022-11-21T22:55:17.851Z,120.78
2022-11-21T22:57:47.056Z,128.75
2022-11-21T23:00:18.078Z,125.28
2022-11-21T23:02:47.167Z,144.95
2022-11-21T23:05:18.045Z,126.32
2022-11-21T23:07:47.358Z,130.38
2022-11-21T23:10:17.074Z,124.97
2022-11-21T23:12:46.162Z,129.05
2022-11-21T23:15:15.727Z,118.18
2022-11-21T23:17:49.566Z,123.03
2022-11-21T23:20:22.955Z,129.48
2022-11-21T23:22:52.031Z,123.68
2022-11-21T23:25:21.385Z,142.38
2022-11-21T23:27:50.432Z,204.15
2022-11-21T23:30:19.974Z,158.27
2022-11-21T23:32:49.642Z,146.63
2022-11-21T23:35:19.121Z,131.35
2022-11-21T23:37:49.587Z,128.05
2022-11-21T23:40:19.014Z,113.85
2022-11-21T23:42:48.074Z,125.90
2022-11-21T23:45:17.764Z,129.43
2022-11-21T23:47:46.898Z,141.27
2022-11-21T23:50:16.810Z,117.85
2022-11-21T23:52:46.004Z,143.55
2022-11-21T23:55:17.461Z,135.80
2022-11-21T23:57:49.099Z,146.38
